• Join FlightAware (Why Join?)
  • Login
  • US Flag 
12:36PM EDT


 

Airport Tracker/Info


-or-


 

Live Flight TrackerFlight Track Log ✈ N1944E ✈ 24-Jun-2013 ✈ KBJC - KCOD

Flight Track Log - Related Links

Times and Time Zones

All times are in EDT time to prevent confusion due to time zone crossing. See the N1944E flight status page for this flight to view local times or setup timezone preferences in your user account.

Time Position Orientation Groundspeed Altitude Reporting Facility
EDT Latitude Longitude Course Direction KTS MPH feet Rate Location/Type
12:50PM 39.9333 -105.0833 107° East 153 176 6,800  Level Denver TRACON
12:51PM 39.9667 -105.0667 21° North 162 186 7,500 660 Climbing Denver TRACON
12:52PM 40.0092 -105.0669 360° North 158 182 8,200 600 Climbing Denver Center
12:53PM 40.0458 -105.0622 North 156 180 8,800 780 Climbing Denver Center
12:54PM 40.1000 -105.0553 North 158 182 9,900 900 Climbing Denver Center
12:55PM 39.8230 -104.7272 107° East  Level FlightAware Approximate
12:55PM 40.1456 -105.0525 North 153 176 10,700  Level Denver Center
12:56PM 40.1892 -105.0508 North 156 180 11,500 600 Climbing Denver Center
12:57PM 40.2336 -105.0472 North 159 183 12,000 240 Climbing Denver Center
12:58PM 40.2906 -105.0475 360° North 188 216 12,000  Level Denver Center
12:59PM 40.3467 -105.0444 North 199 229 12,100 180 Climbing Denver Center
01:00PM 40.4064 -105.0358 North 199 229 12,400 420 Climbing Denver Center
01:01PM 40.4442 -105.0314 North 181 208 13,000 780 Climbing Denver Center
01:02PM 40.5075 -105.0269 North 174 200 14,100 840 Climbing Denver Center
01:03PM 40.5531 -105.0269 360° North 167 192 14,800 540 Climbing Denver Center
01:04PM 40.6028 -105.0208 North 177 204 15,300 480 Climbing Denver Center
01:05PM 40.6556 -105.0272 355° North 179 206 15,900 300 Climbing Denver Center
01:06PM 40.7111 -105.0406 350° North 202 232 16,000  Climbing Denver Center
01:07PM 40.7678 -105.0589 346° North 204 235 16,000  Level Denver Center
01:08PM 40.8156 -105.0928 332° Northwest 196 226 16,000  Level Denver Center
01:09PM 40.8581 -105.1347 323° Northwest 190 219 16,000  Level Denver Center
01:10PM 40.9014 -105.1786 323° Northwest 195 224 16,000  Level Denver Center
01:11PM 40.9542 -105.2294 324° Northwest 196 226 16,000  Level Denver Center
01:12PM 40.9994 -105.2697 326° Northwest 197 227 16,000  Level Denver Center
01:13PM 41.0364 -105.3017 327° Northwest 195 224 16,000  Level Denver Center
01:14PM 41.0942 -105.3525 326° Northwest 195 224 16,000  Level Denver Center
01:15PM 41.1386 -105.3894 328° Northwest 196 226 16,000  Level Denver Center
01:16PM 41.1836 -105.4250 329° Northwest 197 227 16,000  Level Denver Center
01:17PM 41.2358 -105.4692 328° Northwest 198 228 16,000  Level Denver Center
01:19PM 41.2803 -105.5078 327° Northwest 198 228 16,000  Level Denver Center
01:20PM 41.3328 -105.5497 329° Northwest 197 227 16,000  Level Denver Center
01:21PM 41.3756 -105.5878 326° Northwest 195 224 16,000  Level Denver Center
01:22PM 41.4256 -105.6333 326° Northwest 195 224 16,000  Level Denver Center
01:23PM 41.4692 -105.6719 326° Northwest 197 227 16,000  Level Denver Center
01:24PM 41.5217 -105.7150 328° Northwest 197 227 16,000  Level Denver Center
01:25PM 41.5653 -105.7542 326° Northwest 196 226 16,000  Level Denver Center
01:26PM 41.6133 -105.7989 325° Northwest 190 219 16,000 60 Level Denver Center
01:27PM 41.6542 -105.8364 326° Northwest 187 215 16,200  Climbing Denver Center
01:28PM 41.6972 -105.8747 326° Northwest 188 216 16,100 -60 Descending Denver Center
01:29PM 41.7483 -105.9206 326° Northwest 193 222 16,100  Level Denver Center
01:30PM 41.7942 -105.9569 329° Northwest 196 226 16,100  Level Denver Center
01:31PM 41.8467 -106.0033 327° Northwest 199 229 16,100  Level Denver Center
01:32PM 41.8883 -106.0511 320° Northwest 202 232 16,200  Climbing Denver Center
01:33PM 41.9367 -106.1031 321° Northwest 201 231 16,200 -60 Level Denver Center
01:34PM 41.9792 -106.1492 321° Northwest 202 232 16,100 -60 Descending Denver Center
01:35PM 42.0297 -106.2014 323° Northwest 204 235 16,100  Level Denver Center
01:36PM 42.0728 -106.2464 322° Northwest 205 236 16,100  Level Denver Center
01:37PM 42.1242 -106.2994 323° Northwest 207 238 16,100  Level Denver Center
01:38PM 42.1664 -106.3422 323° Northwest 202 232 16,200  Climbing Denver Center
01:39PM 42.2078 -106.3875 321° Northwest 201 231 16,100 -60 Descending Denver Center
01:40PM 42.2561 -106.4408 321° Northwest 201 231 16,100  Level Denver Center
01:41PM 42.2961 -106.4858 320° Northwest 199 229 16,100  Level Denver Center
01:42PM 42.3442 -106.5383 321° Northwest 197 227 16,100 -60 Level Denver Center
01:43PM 42.3856 -106.5825 322° Northwest 198 228 16,000 -60 Descending Denver Center
01:44PM 42.4194 -106.6203 321° Northwest 198 228 16,000  Level Denver Center
01:45PM 42.4750 -106.6794 322° Northwest 198 228 16,000  Level Denver Center
01:46PM 42.5086 -106.7167 321° Northwest 198 228 16,000  Level Denver Center
01:47PM 42.5628 -106.7792 320° Northwest 199 229 16,000  Level Denver Center
01:48PM 42.6106 -106.8289 323° Northwest 196 226 16,100  Climbing Denver Center
01:49PM 42.6528 -106.8753 321° Northwest 200 230 16,100  Level Denver Center
01:50PM 42.6808 -106.9097 318° Northwest 203 234 16,100 -60 Level Salt Lake Center
01:51PM 42.7344 -106.9653 323° Northwest 213 245 16,000  Descending Salt Lake Center
01:52PM 42.7772 -107.0114 322° Northwest 211 243 16,100  Climbing Salt Lake Center
01:53PM 42.8261 -107.0583 325° Northwest 201 231 16,100  Level Salt Lake Center
01:54PM 42.8631 -107.1075 316° Northwest 196 226 16,200  Climbing Salt Lake Center
01:55PM 42.9089 -107.1669 316° Northwest 200 230 16,100 -120 Descending Salt Lake Center
01:56PM 42.9494 -107.2158 319° Northwest 202 232 16,000 -60 Descending Salt Lake Center
01:57PM 42.9961 -107.2778 316° Northwest 204 235 16,000  Level Salt Lake Center
01:58PM 43.0361 -107.3208 322° Northwest 200 230 16,000 -60 Level Salt Lake Center
01:59PM 43.0861 -107.3739 322° Northwest 202 232 15,900  Descending Salt Lake Center
02:01PM 43.1331 -107.4175 326° Northwest 207 238 16,000  Climbing Salt Lake Center
02:02PM 43.1811 -107.4775 318° Northwest 209 241 15,900  Descending Salt Lake Center
02:03PM 43.2222 -107.5231 321° Northwest 206 237 16,000  Climbing Salt Lake Center
02:04PM 43.2728 -107.5797 321° Northwest 207 238 16,000  Level Salt Lake Center
02:05PM 43.3178 -107.6267 323° Northwest 210 242 16,000  Level Salt Lake Center
02:06PM 43.3678 -107.6786 323° Northwest 208 239 16,100  Climbing Salt Lake Center
02:07PM 43.4136 -107.7228 325° Northwest 208 239 16,000  Descending Salt Lake Center
02:08PM 43.4678 -107.7722 326° Northwest 209 241 16,100  Climbing Salt Lake Center
02:09PM 43.5125 -107.8119 327° Northwest 207 238 16,100 -60 Level Salt Lake Center
02:10PM 43.5583 -107.8544 326° Northwest 206 237 16,000  Descending Salt Lake Center
02:11PM 43.6117 -107.9064 325° Northwest 207 238 16,100  Climbing Salt Lake Center
02:12PM 43.6550 -107.9486 325° Northwest 208 239 16,000 -120 Descending Salt Lake Center
02:14PM 43.7194 -108.0451 313° West  Level FlightAware Approximate
02:21PM 44.0220 -108.4306 322° Northwest  Level FlightAware Approximate
02:22PM 44.0683 -108.4808 322° Northwest  Level FlightAware Approximate
02:23PM 44.1102 -108.5333 North  Level FlightAware Approximate
02:24PM 44.1552 -108.5828 317° Northwest  Level FlightAware Approximate
02:25PM 44.1985 -108.6384 317° Northwest  Level FlightAware Approximate
02:26PM 44.2421 -108.6936 320° Northwest  Level FlightAware Approximate
02:27PM 44.2872 -108.7464 320° Northwest  Level FlightAware Approximate
02:28PM 44.3323 -108.7992 320° Northwest  Level FlightAware Approximate
02:29PM 44.3773 -108.8522 320° Northwest  Level FlightAware Approximate
02:30PM 44.4224 -108.9052 320° Northwest  Level FlightAware Approximate